Terminal Aerodrome Forecast
Issued by NWS Pocatello, ID

Home | Current Version | Previous Version | Text Only | Print | Product List | Glossary On
Versions: 1 2 3 4 5 6 7 8 9 10 11 12 13 14
023
FTUS45 KPIH 270520
TAFBYI
TAF
KBYI 270520Z 2706/2806 07006KT P6SM SKC
     FM271900 10009KT P6SM SCT130
     FM280300 12007KT P6SM VCSH SCT100 BKN130=

USA.gov is the U.S. government's official web portal to all federal, state and local government web resources and services.